Dewey Beach, Delaware
Current Conditions -  °F | °C
As of 12:54 PM on Saturday 20 Dec 2014 (Local Time) from KGED Reporting Station
Clear Clear  
Wind Chill: 37°   Ceiling: Unl
Heat Index: 37°   Visibility: 10mi
Dew Point: 25°   Wind: 3mph
Humidity: 62%   Direction: NA
Pressure: 30.27"   Gusts: NA
Location:  38.7115°N, 75.1086°W
Report Text: KGED 201754Z AUTO VRB03KT 10SM CLR 03/M04 A3027 RMK AO2 SLP251 T00281039 10028 21056 58016
Loading
Personal Weather Stations






























Interactive Weather Map New forecast layout! Learn more

10-Day Weather Forecast

Advertisements
Track Severe Weather on mobile